Tripoli, Wisconsin
Current Conditions -  °F | °C
As of 6:35 AM on Monday 24 Nov 2014 (Local Time) from KTKV Reporting Station
Light Rain Light Rain  
Wind Chill: 26°   Ceiling: 800
Heat Index: 34°   Visibility: 5mi
Dew Point: 34°   Wind: 10mph
Humidity: 97%   Direction: 310°NW
Pressure: 29.08"   Gusts: NA
Location:  45.56°N, 89.99°W
Report Text: KTKV 241235Z AUTO 31009KT 5SM -RA OVC008 01/01 A2908 RMK AO2 P0001 T00130009
Loading
Personal Weather Stations






























Interactive Weather Map New forecast layout! Learn more

10-Day Weather Forecast

Advertisements
Track Severe Weather on mobile